Time;durP1;ratioP1;P1;durP2;ratioP2;P2;SDS_P1;SDS_P2;PMS_P1;PMS_P2;Temp;Humidity;BMP_temperature;BMP_pressure;BME280_temperature;BME280_humidity;BME280_pressure;Samples;Min_cycle;Max_cycle;Signal;HPM_P1;HPM_P2
2022/04/12 00:01:12;;;;;;;6.75;3.00;;;;;;;;;;5054719;28;20040;-79
2022/04/12 00:03:39;;;;;;;6.45;2.92;;;;;;;;;;5062301;28;20143;-80
2022/04/12 00:06:05;;;;;;;5.53;3.50;;;;;;;;;;5041393;28;20033;-80
2022/04/12 00:08:32;;;;;;;6.30;2.90;;;;;;;;;;5056608;28;20076;-80
2022/04/12 00:10:58;;;;;;;6.95;2.97;;;;;;;;;;5057529;28;20029;-80
2022/04/12 00:13:25;;;;;;;5.35;3.30;;;;;;;;;;5055306;28;20052;-80
2022/04/12 00:15:51;;;;;;;5.55;3.33;;;;;;;;;;5057829;28;20037;-82
2022/04/12 00:21:02;;;;;;;7.35;3.03;;;;;;;;;;5057438;28;20110;-79
2022/04/12 00:23:29;;;;;;;5.28;3.42;;;;;;;;;;5058101;28;20557;-79
2022/04/12 00:25:56;;;;;;;5.05;3.47;;;;;;;;;;5058736;28;20109;-80
2022/04/12 00:28:22;;;;;;;7.38;3.35;;;;;;;;;;5057124;28;20135;-80
2022/04/12 00:30:48;;;;;;;8.95;3.35;;;;;;;;;;5060441;28;21583;-79
2022/04/12 00:33:15;;;;;;;6.50;3.30;;;;;;;;;;5060915;28;20040;-79
2022/04/12 00:35:41;;;;;;;4.78;3.03;;;;;;;;;;5041935;28;21573;-79
2022/04/12 00:38:17;;;;;;;4.32;3.45;;;;;;;;;;5057733;28;20569;-80
2022/04/12 00:40:44;;;;;;;5.22;3.67;;;;;;;;;;5060217;28;20056;-81
2022/04/12 00:43:10;;;;;;;5.57;3.65;;;;;;;;;;5056959;28;20558;-79
2022/04/12 00:45:36;;;;;;;6.35;3.53;;;;;;;;;;5056715;28;20052;-79
2022/04/12 00:48:02;;;;;;;7.22;3.72;;;;;;;;;;5058604;28;20576;-79
2022/04/12 00:50:29;;;;;;;8.57;4.20;;;;;;;;;;5059940;28;20076;-80
2022/04/12 00:52:56;;;;;;;7.18;3.63;;;;;;;;;;5059256;28;20412;-78
2022/04/12 00:55:22;;;;;;;5.70;3.70;;;;;;;;;;5061065;28;20498;-79
2022/04/12 00:57:49;;;;;;;7.53;3.80;;;;;;;;;;5066807;28;20075;-80
2022/04/12 01:00:18;;;;;;;7.57;3.70;;;;;;;;;;5056407;28;20092;-79
2022/04/12 01:02:44;;;;;;;5.25;3.25;;;;;;;;;;5067719;28;20056;-79
2022/04/12 01:05:11;;;;;;;11.82;3.85;;;;;;;;;;5044548;28;20033;-79
2022/04/12 01:07:37;;;;;;;9.25;3.83;;;;;;;;;;5056302;28;20041;-79
2022/04/12 01:10:04;;;;;;;6.18;3.38;;;;;;;;;;5057397;28;20079;-79
2022/04/12 01:12:38;;;;;;;5.63;3.25;;;;;;;;;;5056460;28;20036;-80
2022/04/12 01:15:17;;;;;;;7.95;4.05;;;;;;;;;;5057763;28;20040;-80
2022/04/12 01:17:44;;;;;;;9.57;3.58;;;;;;;;;;5059268;28;20094;-79
2022/04/12 01:20:11;;;;;;;7.60;3.78;;;;;;;;;;5057912;28;20787;-79
2022/04/12 01:22:44;;;;;;;7.32;3.47;;;;;;;;;;5053983;28;20079;-79
2022/04/12 01:25:11;;;;;;;8.32;3.97;;;;;;;;;;5056016;28;20036;-80
2022/04/12 01:27:37;;;;;;;6.72;4.07;;;;;;;;;;5057711;28;20041;-80
2022/04/12 01:30:03;;;;;;;5.78;3.78;;;;;;;;;;5033796;28;20056;-80
2022/04/12 01:32:29;;;;;;;6.82;3.90;;;;;;;;;;5056150;28;20064;-79
2022/04/12 01:34:55;;;;;;;7.72;4.30;;;;;;;;;;5059577;28;20037;-80
2022/04/12 01:37:21;;;;;;;9.68;4.38;;;;;;;;;;5061781;28;21090;-80
2022/04/12 01:39:47;;;;;;;12.55;4.13;;;;;;;;;;5057639;28;20536;-78
2022/04/12 01:42:13;;;;;;;10.43;4.90;;;;;;;;;;5057850;28;20049;-80
2022/04/12 01:44:39;;;;;;;8.15;4.35;;;;;;;;;;5033145;28;20151;-79
2022/04/12 01:47:06;;;;;;;8.32;4.18;;;;;;;;;;5055915;28;20543;-79
2022/04/12 01:49:32;;;;;;;7.53;4.40;;;;;;;;;;5051634;28;20079;-79
2022/04/12 01:52:01;;;;;;;9.65;4.50;;;;;;;;;;5038183;28;20044;-78
2022/04/12 01:54:28;;;;;;;8.55;4.13;;;;;;;;;;5054916;28;20045;-79
2022/04/12 01:56:54;;;;;;;12.18;5.22;;;;;;;;;;5052023;28;20129;-79
2022/04/12 01:59:21;;;;;;;7.10;4.50;;;;;;;;;;5050827;28;20040;-78
2022/04/12 02:01:47;;;;;;;10.63;4.75;;;;;;;;;;5055819;28;20041;-79
2022/04/12 02:04:16;;;;;;;7.15;4.60;;;;;;;;;;5059608;28;20032;-81
2022/04/12 02:06:42;;;;;;;6.35;4.40;;;;;;;;;;5054588;28;20531;-79
2022/04/12 02:09:11;;;;;;;7.75;4.80;;;;;;;;;;5055567;28;20044;-80
2022/04/12 02:11:38;;;;;;;5.78;4.90;;;;;;;;;;5056754;28;20132;-80
2022/04/12 02:14:04;;;;;;;6.90;4.97;;;;;;;;;;5059121;28;20090;-80
2022/04/12 02:16:30;;;;;;;7.20;4.82;;;;;;;;;;5054410;28;20105;-80
2022/04/12 02:18:56;;;;;;;11.25;4.60;;;;;;;;;;5057329;28;20044;-80
2022/04/12 02:21:22;;;;;;;8.00;5.15;;;;;;;;;;5056182;28;20155;-80
2022/04/12 02:23:48;;;;;;;8.52;5.40;;;;;;;;;;5056482;28;20127;-80
2022/04/12 02:26:14;;;;;;;15.05;5.90;;;;;;;;;;5056456;28;21824;-80
2022/04/12 02:28:40;;;;;;;9.10;5.45;;;;;;;;;;5051011;28;20032;-80
2022/04/12 02:31:06;;;;;;;8.68;5.75;;;;;;;;;;5056228;28;20424;-80
2022/04/12 02:33:32;;;;;;;11.00;5.68;;;;;;;;;;5056311;28;20040;-79
2022/04/12 02:35:58;;;;;;;10.80;5.50;;;;;;;;;;5057722;28;20045;-80
2022/04/12 02:38:24;;;;;;;12.52;5.70;;;;;;;;;;5051760;28;20044;-80
2022/04/12 02:40:50;;;;;;;9.32;5.75;;;;;;;;;;5055845;28;20087;-80
2022/04/12 02:43:17;;;;;;;9.90;5.63;;;;;;;;;;5056034;28;20055;-79
2022/04/12 02:45:43;;;;;;;12.70;5.68;;;;;;;;;;5053967;28;20033;-80
2022/04/12 02:48:11;;;;;;;7.47;5.50;;;;;;;;;;5058403;28;20568;-79
2022/04/12 02:50:37;;;;;;;9.70;5.63;;;;;;;;;;5052936;28;20045;-79
2022/04/12 02:53:03;;;;;;;10.05;5.72;;;;;;;;;;5055193;28;20047;-80
2022/04/12 02:55:29;;;;;;;11.15;6.57;;;;;;;;;;5038016;28;20102;-80
2022/04/12 02:57:56;;;;;;;8.30;6.25;;;;;;;;;;5055234;28;20048;-79
2022/04/12 03:00:22;;;;;;;9.95;6.15;;;;;;;;;;5054900;28;20063;-80
2022/04/12 03:02:48;;;;;;;11.93;6.25;;;;;;;;;;5055360;28;20036;-80
2022/04/12 03:05:14;;;;;;;11.77;6.35;;;;;;;;;;5040633;28;20040;-80
2022/04/12 03:07:40;;;;;;;10.77;6.60;;;;;;;;;;5055768;28;20124;-79
2022/04/12 03:10:06;;;;;;;10.93;6.45;;;;;;;;;;5055396;28;20507;-81
2022/04/12 03:12:32;;;;;;;12.52;6.55;;;;;;;;;;5053939;28;20029;-81
2022/04/12 03:14:59;;;;;;;10.60;6.75;;;;;;;;;;5055913;28;20135;-79
2022/04/12 03:17:25;;;;;;;10.15;6.30;;;;;;;;;;5060358;28;20040;-79
2022/04/12 03:19:52;;;;;;;13.40;6.57;;;;;;;;;;5067317;28;20419;-79
2022/04/12 03:22:18;;;;;;;10.95;6.22;;;;;;;;;;5063606;28;20503;-79
2022/04/12 03:24:45;;;;;;;14.85;8.05;;;;;;;;;;5053047;28;20076;-80
2022/04/12 03:27:11;;;;;;;10.73;7.28;;;;;;;;;;5058634;28;20041;-82
2022/04/12 03:29:37;;;;;;;10.85;6.47;;;;;;;;;;5055338;28;20053;-81
2022/04/12 03:32:04;;;;;;;9.60;6.55;;;;;;;;;;5058008;28;20040;-80
2022/04/12 03:34:30;;;;;;;11.88;6.10;;;;;;;;;;5043114;28;20388;-81
2022/04/12 03:36:56;;;;;;;15.57;7.57;;;;;;;;;;5063286;28;20122;-80
2022/04/12 03:39:22;;;;;;;11.23;7.15;;;;;;;;;;5041759;28;20056;-82
2022/04/12 03:41:49;;;;;;;12.18;7.28;;;;;;;;;;5038192;28;20048;-79
2022/04/12 03:44:15;;;;;;;10.88;6.88;;;;;;;;;;5058062;28;20041;-80
2022/04/12 03:46:42;;;;;;;10.02;7.75;;;;;;;;;;5055698;28;20039;-81
2022/04/12 03:49:08;;;;;;;11.13;7.00;;;;;;;;;;5041218;28;20052;-81
2022/04/12 03:51:35;;;;;;;11.18;7.55;;;;;;;;;;5056190;28;20041;-81
2022/04/12 03:54:02;;;;;;;11.52;7.60;;;;;;;;;;5040756;28;20039;-82
2022/04/12 03:56:28;;;;;;;12.30;7.22;;;;;;;;;;5025434;28;20048;-82
2022/04/12 03:58:54;;;;;;;10.63;6.78;;;;;;;;;;5041003;28;20456;-83
2022/04/12 04:01:20;;;;;;;9.10;7.05;;;;;;;;;;5058904;28;20554;-81
2022/04/12 04:03:46;;;;;;;10.48;7.53;;;;;;;;;;5062174;28;20602;-79
2022/04/12 04:06:12;;;;;;;11.43;7.70;;;;;;;;;;5041979;28;20404;-81
2022/04/12 04:08:38;;;;;;;12.35;8.18;;;;;;;;;;5061699;28;20118;-82
2022/04/12 04:11:10;;;;;;;12.55;8.38;;;;;;;;;;5065098;28;20036;-82
2022/04/12 04:13:37;;;;;;;12.70;7.82;;;;;;;;;;5039462;28;20499;-81
2022/04/12 04:16:04;;;;;;;14.13;8.27;;;;;;;;;;5063128;28;20127;-81
2022/04/12 04:18:30;;;;;;;10.63;8.27;;;;;;;;;;5061103;28;20055;-80
2022/04/12 04:20:56;;;;;;;10.63;8.13;;;;;;;;;;5045385;28;20480;-81
2022/04/12 04:23:22;;;;;;;13.05;8.15;;;;;;;;;;5044542;28;20123;-78
2022/04/12 04:25:49;;;;;;;13.38;8.40;;;;;;;;;;5059392;28;20496;-80
2022/04/12 04:28:21;;;;;;;20.45;8.98;;;;;;;;;;5055044;28;20171;-80
2022/04/12 04:30:49;;;;;;;13.38;8.75;;;;;;;;;;5060514;28;20053;-80
2022/04/12 04:33:15;;;;;;;13.00;8.02;;;;;;;;;;5041085;28;20048;-80
2022/04/12 04:35:41;;;;;;;10.85;8.10;;;;;;;;;;5044733;28;20439;-80
2022/04/12 04:38:07;;;;;;;11.73;8.10;;;;;;;;;;5045099;28;20779;-79
2022/04/12 04:40:33;;;;;;;15.07;8.60;;;;;;;;;;5057124;28;20395;-81
2022/04/12 04:42:59;;;;;;;13.73;8.30;;;;;;;;;;5064268;28;20039;-80
2022/04/12 04:45:26;;;;;;;11.25;8.02;;;;;;;;;;5063094;28;20037;-80
2022/04/12 04:47:52;;;;;;;16.17;9.60;;;;;;;;;;5059225;28;20040;-80
2022/04/12 04:50:19;;;;;;;12.18;8.45;;;;;;;;;;5056617;28;20048;-80
2022/04/12 04:52:45;;;;;;;12.82;7.88;;;;;;;;;;5060152;28;20052;-80
2022/04/12 04:55:11;;;;;;;13.75;8.88;;;;;;;;;;5059187;28;20036;-80
2022/04/12 04:57:41;;;;;;;17.63;8.88;;;;;;;;;;5055490;28;20045;-80
2022/04/12 05:00:08;;;;;;;13.90;9.35;;;;;;;;;;5064887;28;20496;-80
2022/04/12 05:02:34;;;;;;;13.90;8.32;;;;;;;;;;5066513;28;20389;-80
2022/04/12 05:05:04;;;;;;;11.13;7.93;;;;;;;;;;5057145;28;20028;-79
2022/04/12 05:07:30;;;;;;;13.63;8.35;;;;;;;;;;5056512;28;20036;-80
2022/04/12 05:09:56;;;;;;;11.82;8.20;;;;;;;;;;5061958;28;20071;-80
2022/04/12 05:12:22;;;;;;;12.05;8.85;;;;;;;;;;5063878;28;20048;-80
2022/04/12 05:14:49;;;;;;;19.30;9.25;;;;;;;;;;5065552;28;20074;-80
2022/04/12 05:17:23;;;;;;;12.43;8.35;;;;;;;;;;5056372;28;20563;-80
2022/04/12 05:19:49;;;;;;;14.00;8.77;;;;;;;;;;5047350;28;20151;-80
2022/04/12 05:22:15;;;;;;;15.02;10.00;;;;;;;;;;5059103;28;20033;-80
2022/04/12 05:24:41;;;;;;;12.32;8.88;;;;;;;;;;5065056;28;20112;-80
2022/04/12 05:27:08;;;;;;;13.57;9.70;;;;;;;;;;5061912;28;20044;-81
2022/04/12 05:29:37;;;;;;;14.35;9.07;;;;;;;;;;5050685;28;20431;-81
2022/04/12 05:32:04;;;;;;;13.00;9.40;;;;;;;;;;5049383;28;20412;-81
2022/04/12 05:34:30;;;;;;;12.65;9.07;;;;;;;;;;5064281;28;20044;-80
2022/04/12 05:36:56;;;;;;;16.33;8.80;;;;;;;;;;5052011;28;20112;-81
2022/04/12 05:39:22;;;;;;;11.95;8.52;;;;;;;;;;5066397;28;20048;-80
2022/04/12 05:41:48;;;;;;;15.68;9.15;;;;;;;;;;5062699;28;20403;-81
2022/04/12 05:44:15;;;;;;;14.98;9.20;;;;;;;;;;5058833;28;20040;-81
2022/04/12 05:46:41;;;;;;;11.60;9.20;;;;;;;;;;5055659;28;20055;-81
2022/04/12 05:49:07;;;;;;;16.40;9.85;;;;;;;;;;5063294;28;20075;-81
2022/04/12 05:51:33;;;;;;;11.32;8.80;;;;;;;;;;5057029;28;20128;-81
2022/04/12 05:53:59;;;;;;;17.67;9.63;;;;;;;;;;5046636;28;20029;-80
2022/04/12 05:56:25;;;;;;;15.60;9.65;;;;;;;;;;5051756;28;20044;-80
2022/04/12 05:58:51;;;;;;;12.82;8.90;;;;;;;;;;5045414;28;20041;-82
2022/04/12 06:01:17;;;;;;;22.90;10.25;;;;;;;;;;5043182;28;20029;-82
2022/04/12 06:03:43;;;;;;;16.23;9.02;;;;;;;;;;5041234;28;20075;-80
2022/04/12 06:06:09;;;;;;;14.90;8.70;;;;;;;;;;5044589;28;20040;-83
2022/04/12 06:08:35;;;;;;;13.07;9.05;;;;;;;;;;5025780;28;20976;-80
2022/04/12 06:11:03;;;;;;;14.02;8.95;;;;;;;;;;5031280;28;20116;-88
2022/04/12 06:13:29;;;;;;;14.48;8.95;;;;;;;;;;5045551;28;20083;-85
2022/04/12 06:16:15;;;;;;;11.10;7.85;;;;;;;;;;5043807;28;20096;-90
2022/04/12 06:22:02;;;;;;;12.20;7.63;;;;;;;;;;5043676;28;20130;-86
2022/04/12 06:24:28;;;;;;;12.48;7.80;;;;;;;;;;5042426;28;20033;-88
2022/04/12 06:26:54;;;;;;;12.93;8.50;;;;;;;;;;5025810;28;20041;-85
2022/04/12 06:29:39;;;;;;;11.05;8.15;;;;;;;;;;5024555;28;20098;-87
2022/04/12 06:32:05;;;;;;;;;;;7.60;99.90;;;;;;5044934;28;20063;-85
2022/04/12 06:34:31;;;;;;;13.20;8.65;;;;;;;;;;5041919;28;19932;-85
2022/04/12 06:36:57;;;;;;;10.82;8.10;;;;;;;;;;5039919;28;20033;-85
2022/04/12 06:39:24;;;;;;;12.43;8.43;;;;;;;;;;4980878;28;20045;-86
2022/04/12 06:41:50;;;;;;;12.10;9.25;;;;;;;;;;5025116;28;20060;-85
2022/04/12 06:44:16;;;;;;;14.32;9.32;;;;;;;;;;5025066;28;20041;-84
2022/04/12 06:46:42;;;;;;;10.93;8.65;;;;;;;;;;5043009;28;20041;-85
2022/04/12 06:49:08;;;;;;;16.05;8.95;;;;;;;;;;5043061;28;20143;-85
2022/04/12 06:51:34;;;;;;;14.60;9.55;;;;;;;;;;5054043;28;20069;-85
2022/04/12 06:54:00;;;;;;;14.25;9.07;;;;;;;;;;5043241;28;20056;-86
2022/04/12 06:56:27;;;;;;;19.90;9.32;;;;;;;;;;5043802;28;20056;-85
2022/04/12 06:58:53;;;;;;;13.30;8.48;;;;;;;;;;5041726;28;20504;-84
2022/04/12 07:01:19;;;;;;;13.45;9.38;;;;;;;;;;5041405;28;20501;-86
2022/04/12 07:03:45;;;;;;;15.20;9.13;;;;;;;;;;5041701;28;20689;-86
2022/04/12 07:06:11;;;;;;;11.52;8.00;;;;;;;;;;5027460;28;20485;-86
2022/04/12 07:08:37;;;;;;;13.73;8.70;;;;;;;;;;5045033;28;20045;-86
2022/04/12 07:11:03;;;;;;;12.38;8.68;;;;;;;;;;5012302;28;20054;-85
2022/04/12 07:13:29;;;;;;;15.23;8.15;;;;;;;;;;5044391;28;20037;-85
2022/04/12 07:15:56;;;;;;;12.27;8.95;;;;;;;;;;5026518;28;20041;-86
2022/04/12 07:18:22;;;;;;;12.38;8.98;;;;;;;;;;5046596;28;20048;-85
2022/04/12 07:20:48;;;;;;;13.73;9.00;;;;;;;;;;5045844;28;20128;-85
2022/04/12 07:23:14;;;;;;;16.30;8.98;;;;;;;;;;5045618;28;20045;-85
2022/04/12 07:25:40;;;;;;;15.30;8.68;;;;;;;;;;5010745;28;20597;-86
2022/04/12 07:28:29;;;;;;;16.20;9.32;;;;;;;;;;5044597;28;20047;-86
2022/04/12 07:30:55;;;;;;;12.60;7.90;;;;;;;;;;5009916;28;20041;-84
2022/04/12 07:33:21;;;;;;;13.05;8.68;;;;;;;;;;5045677;28;20071;-88
2022/04/12 07:35:47;;;;;;;12.27;8.77;;;;;;;;;;5028109;28;20942;-86
2022/04/12 07:38:13;;;;;;;12.70;8.82;;;;;;;;;;5025746;28;20033;-88
2022/04/12 07:40:47;;;;;;;18.73;9.10;;;;;;;;;;5046420;28;20102;-87
2022/04/12 07:43:13;;;;;;;13.52;9.20;;;;;;;;;;5043241;28;20065;-86
2022/04/12 07:45:39;;;;;;;12.13;8.82;;;;;;;;;;5028488;28;20041;-88
2022/04/12 07:48:05;;;;;;;12.23;7.90;;;;;;;;;;5028945;28;20045;-87
2022/04/12 07:50:31;;;;;;;13.85;8.35;;;;;;;;;;5028196;28;20079;-88
2022/04/12 07:52:57;;;;;;;11.45;7.78;;;;;;;;;;5020304;28;20232;-87
2022/04/12 07:55:23;;;;;;;14.50;8.05;;;;;;;;;;5034571;28;20071;-86
2022/04/12 07:57:50;;;;;;;12.18;8.98;;;;;;;;;;5053114;28;20056;-87
2022/04/12 08:00:16;;;;;;;11.98;8.35;;;;;;;;;;5064303;28;20114;-87
2022/04/12 08:02:43;;;;;;;11.40;8.70;;;;;;;;;;5064430;28;20040;-88
2022/04/12 08:05:09;;;;;;;14.27;8.75;;;;;;;;;;5063632;28;20504;-86
2022/04/12 08:07:35;;;;;;;17.40;8.57;;;;;;;;;;5064116;28;20072;-86
2022/04/12 08:10:01;;;;;;;14.75;9.23;;;;;;;;;;5049699;28;20371;-87
2022/04/12 08:12:27;;;;;;;11.27;7.95;;;;;;;;;;5053835;28;20045;-87
2022/04/12 08:14:53;;;;;;;11.82;8.88;;;;;;;;;;5040597;28;20128;-86
2022/04/12 08:17:19;;;;;;;11.02;8.40;;;;;;;;;;5064674;28;20053;-87
2022/04/12 08:19:46;;;;;;;14.00;8.20;;;;;;;;;;5063582;28;20056;-86
2022/04/12 08:22:12;;;;;;;13.43;9.48;;;;;;;;;;5067240;28;20080;-86
2022/04/12 08:24:39;;;;;;;11.75;8.43;;;;;;;;;;5056412;28;20488;-86
2022/04/12 08:27:05;;;;;;;13.38;9.05;;;;;;;;;;5062165;28;20409;-86
2022/04/12 08:29:31;;;;;;;12.65;8.82;;;;;;;;;;5054110;28;20049;-86
2022/04/12 08:31:57;;;;;;;11.80;8.85;;;;;;;;;;5066833;28;20048;-87
2022/04/12 08:34:23;;;;;;;15.48;9.02;;;;;;;;;;5070150;28;20045;-85
2022/04/12 08:36:49;;;;;;;23.15;9.65;;;;;;;;;;5075473;28;20029;-84
2022/04/12 08:39:15;;;;;;;14.75;9.00;;;;;;;;;;5066873;28;20051;-83
2022/04/12 08:41:42;;;;;;;15.70;9.18;;;;;;;;;;5068657;28;20532;-84
2022/04/12 08:44:08;;;;;;;20.60;9.02;;;;;;;;;;5068419;28;20075;-84
2022/04/12 08:46:37;;;;;;;14.10;8.60;;;;;;;;;;5067423;28;20082;-85
2022/04/12 08:49:03;;;;;;;12.20;8.95;;;;;;;;;;5066093;28;20040;-84
2022/04/12 08:51:30;;;;;;;12.50;9.15;;;;;;;;;;5066628;28;20045;-84
2022/04/12 08:53:59;;;;;;;15.63;8.70;;;;;;;;;;5066442;28;20041;-84
2022/04/12 08:56:26;;;;;;;11.77;9.10;;;;;;;;;;5064928;28;20125;-84
2022/04/12 08:58:52;;;;;;;16.33;9.48;;;;;;;;;;5060399;28;20045;-86
2022/04/12 09:01:18;;;;;;;13.90;9.20;;;;;;;;;;5063764;28;20052;-86
2022/04/12 09:04:03;;;;;;;16.08;10.23;;;;;;;;;;5066420;28;20036;-87
2022/04/12 09:06:29;;;;;;;14.55;9.70;;;;;;;;;;5066899;28;20055;-86
2022/04/12 09:08:55;;;;;;;12.10;9.48;;;;;;;;;;5064188;28;20132;-87
2022/04/12 09:11:22;;;;;;;15.82;9.75;;;;;;;;;;5066175;28;20048;-86
2022/04/12 09:14:15;;;;;;;16.00;8.98;;;;;;;;;;5060038;28;20531;-86
2022/04/12 09:16:44;;;;;;;13.18;8.90;;;;;;;;;;5062421;28;20057;-86
2022/04/12 09:19:10;;;;;;;15.07;8.93;;;;;;;;;;5065001;28;20040;-85
2022/04/12 09:21:44;;;;;;;14.05;9.50;;;;;;;;;;5063420;28;20143;-86
2022/04/12 09:24:18;;;;;;;14.70;9.63;;;;;;;;;;5048190;28;20120;-87
2022/04/12 09:26:56;;;;;;;11.07;9.23;;;;;;;;;;5048008;28;20369;-85
2022/04/12 09:29:27;;;;;;;12.18;9.60;;;;;;;;;;5065239;28;20396;-86
2022/04/12 09:31:57;;;;;;;12.90;8.90;;;;;;;;;;5065500;28;20056;-84
2022/04/12 09:34:31;;;;;;;12.85;9.32;;;;;;;;;;5065776;28;20127;-84
2022/04/12 09:36:57;;;;;;;13.73;9.23;;;;;;;;;;5048853;28;20048;-84
2022/04/12 09:39:23;;;;;;;15.63;8.65;;;;;;;;;;5060562;28;20032;-84
2022/04/12 09:41:50;;;;;;;13.85;9.18;;;;;;;;;;5047114;28;20036;-85
2022/04/12 09:44:19;;;;;;;13.25;9.15;;;;;;;;;;5052935;28;20115;-84
2022/04/12 09:46:47;;;;;;;12.43;8.93;;;;;;;;;;5062838;28;20136;-84
2022/04/12 09:49:14;;;;;;;13.48;9.68;;;;;;;;;;5080045;28;20059;-85
2022/04/12 09:51:40;;;;;;;11.88;9.02;;;;;;;;;;5062501;28;20070;-85
2022/04/12 09:54:07;;;;;;;14.30;9.32;;;;;;;;;;5043628;28;20547;-84
2022/04/12 09:56:34;;;;;;;11.57;8.45;;;;;;;;;;5046047;28;20052;-85
2022/04/12 09:59:09;;;;;;;13.60;9.43;;;;;;;;;;5060409;28;20144;-85
2022/04/12 10:01:39;;;;;;;13.00;9.40;;;;;;;;;;5063762;28;20562;-86
2022/04/12 10:04:15;;;;;;;11.88;9.30;;;;;;;;;;5029082;28;20381;-85
2022/04/12 10:06:42;;;;;;;13.75;9.48;;;;;;;;;;5051855;28;20158;-84
2022/04/12 10:09:36;;;;;;;10.40;8.70;;;;;;;;;;5072843;28;20119;-85
2022/04/12 10:12:09;;;;;;;15.00;10.00;;;;;;;;;;5067549;28;20056;-85
2022/04/12 10:14:49;;;;;;;14.03;8.83;;;;;;;;;;5059656;28;20036;-86
2022/04/12 10:17:21;;;;;;;11.77;9.07;;;;;;;;;;5054834;28;20461;-86
2022/04/12 10:19:47;;;;;;;14.52;9.75;;;;;;;;;;5055322;28;20037;-86
2022/04/12 10:22:13;;;;;;;11.98;9.77;;;;;;;;;;5060238;28;20511;-85
2022/04/12 10:24:52;;;;;;;12.02;8.82;;;;;;;;;;5059765;28;20044;-85
2022/04/12 10:27:31;;;;;;;11.05;9.02;;;;;;;;;;5044696;28;20492;-84
2022/04/12 10:30:20;;;;;;;13.60;9.73;;;;;;;;;;5043937;28;20068;-86
2022/04/12 10:33:05;;;;;;;11.48;9.05;;;;;;;;;;5076698;28;20416;-86
2022/04/12 10:35:54;;;;;;;13.95;9.85;;;;;;;;;;5047849;28;20114;-85
2022/04/12 10:38:20;;;;;;;11.10;9.77;;;;;;;;;;5064378;22;20080;-85
2022/04/12 10:40:56;;;;;;;13.23;9.48;;;;;;;;;;5045727;28;20079;-86
2022/04/12 10:43:36;;;;;;;12.70;8.98;;;;;;;;;;5047489;28;20144;-86
2022/04/12 10:46:04;;;;;;;10.43;9.00;;;;;;;;;;5045450;28;20041;-85
2022/04/12 10:48:30;;;;;;;12.50;9.18;;;;;;;;;;5046967;28;20048;-86
2022/04/12 10:51:12;;;;;;;10.18;9.07;;;;;;;;;;5028399;28;20389;-85
2022/04/12 10:53:38;;;;;;;15.98;10.55;;;;;;;;;;5027022;28;20041;-86
2022/04/12 10:56:04;;;;;;;13.75;9.90;;;;;;;;;;5046599;28;20171;-87
2022/04/12 10:58:31;;;;;;;14.68;9.32;;;;;;;;;;5047370;28;20037;-86
2022/04/12 11:00:57;;;;;;;11.07;9.43;;;;;;;;;;5046179;28;20052;-86
2022/04/12 11:03:47;;;;;;;13.40;9.63;;;;;;;;;;5044671;28;20148;-85
2022/04/12 11:06:14;;;;;;;13.73;9.68;;;;;;;;;;5028835;28;20884;-86
2022/04/12 11:08:46;;;;;;;13.57;9.77;;;;;;;;;;5044512;28;20045;-85
2022/04/12 11:11:17;;;;;;;14.88;9.77;;;;;;;;;;5029278;28;20120;-85
2022/04/12 11:13:44;;;;;;;16.88;10.05;;;;;;;;;;5027745;28;20095;-86
2022/04/12 11:16:11;;;;;;;14.73;9.45;;;;;;;;;;5045902;28;20136;-85
2022/04/12 11:18:53;;;;;;;13.77;10.02;;;;;;;;;;5046176;28;20069;-85
2022/04/12 11:21:20;;;;;;;13.70;9.85;;;;;;;;;;5011456;28;20073;-85
2022/04/12 11:23:46;;;;;;;12.48;9.90;;;;;;;;;;5045664;28;20068;-86
2022/04/12 11:26:31;;;;;;;12.90;10.20;;;;;;;;;;5027083;28;20040;-85
2022/04/12 11:28:57;;;;;;;13.05;10.70;;;;;;;;;;5046198;28;20634;-85
2022/04/12 11:31:24;;;;;;;15.27;10.95;;;;;;;;;;5045523;28;20439;-85
2022/04/12 11:33:50;;;;;;;11.20;9.43;;;;;;;;;;5047355;28;20407;-85
2022/04/12 11:36:35;;;;;;;13.98;9.80;;;;;;;;;;5044872;28;20045;-86
2022/04/12 11:39:01;;;;;;;16.65;10.30;;;;;;;;;;5031099;28;20105;-86
2022/04/12 11:41:31;;;;;;;14.05;11.05;;;;;;;;;;5023891;28;20083;-86
2022/04/12 11:47:05;;;;;;;12.40;11.00;;;;;;;;;;5023175;28;20058;-86
2022/04/12 11:49:32;;;;;;;13.90;10.80;;;;;;;;;;5007670;28;20067;-88
2022/04/12 11:52:02;;;;;;;14.57;10.93;;;;;;;;;;5045704;28;20043;-87
2022/04/12 11:54:36;;;;;;;15.52;10.52;;;;;;;;;;5047902;28;20067;-87
2022/04/12 11:57:02;;;;;;;14.77;10.60;;;;;;;;;;5030289;28;20057;-86
2022/04/12 11:59:29;;;;;;;16.20;10.93;;;;;;;;;;5027758;28;20064;-87
2022/04/12 12:02:00;;;;;;;15.25;11.13;;;;;;;;;;5013019;28;20045;-87
2022/04/12 12:04:31;;;;;;;16.83;12.07;;;;;;;;;;5045076;28;20531;-85
2022/04/12 12:06:59;;;;;;;14.38;11.00;;;;;;;;;;5048581;28;20925;-87
2022/04/12 12:09:41;;;;;;;13.07;11.10;;;;;;;;;;5028052;28;20056;-87
2022/04/12 12:12:13;;;;;;;15.60;11.73;;;;;;;;;;5049032;28;20128;-87
2022/04/12 12:14:42;;;;;;;13.40;11.68;;;;;;;;;;5011381;28;20131;-86
2022/04/12 12:17:20;;;;;;;17.20;11.95;;;;;;;;;;5013740;28;20045;-87
2022/04/12 12:19:47;;;;;;;15.70;11.10;;;;;;;;;;5026268;28;20071;-86
2022/04/12 12:22:19;;;;;;;15.05;11.70;;;;;;;;;;5013948;28;20488;-87
2022/04/12 12:24:56;;;;;;;14.48;11.90;;;;;;;;;;5046437;28;20049;-87
2022/04/12 12:27:41;;;;;;;17.13;12.35;;;;;;;;;;5050633;28;20150;-87
2022/04/12 12:30:45;;;;;;;16.02;11.38;;;;;;;;;;5051718;28;20425;-86
2022/04/12 12:33:04;;;;;;;16.27;11.48;;;;;;;;;;5029099;28;20049;-86
2022/04/12 12:35:35;;;;;;;15.38;12.02;;;;;;;;;;5028151;28;20191;-86
2022/04/12 12:45:03;;;;;;;15.95;11.73;;;;;;;;;;5230617;22;20463;-86
2022/04/12 12:47:35;;;;;;;18.20;12.13;;;;;;;;;;5048570;28;20113;-86
2022/04/12 12:50:39;;;;;;;14.05;11.45;;;;;;;;;;5029584;28;20542;-87
2022/04/12 12:53:26;;;;;;;16.45;11.63;;;;;;;;;;5015373;28;20153;-86
2022/04/12 12:55:55;;;;;;;20.30;12.02;;;;;;;;;;5014053;28;20359;-85
2022/04/12 13:01:54;;;;;;;16.60;11.98;;;;;;;;;;5028641;28;20401;-86
2022/04/12 13:07:10;;;;;;;14.20;12.02;;;;;;;;;;5065925;23;20060;-86
2022/04/12 13:09:55;;;;;;;16.42;11.95;;;;;;;;;;5065196;28;20496;-86
2022/04/12 13:12:22;;;;;;;15.40;11.23;;;;;;;;;;5039584;28;20404;-86
2022/04/12 13:14:49;;;;;;;14.93;11.70;;;;;;;;;;4996715;28;20048;-86
2022/04/12 13:17:16;;;;;;;16.02;11.82;;;;;;;;;;5045669;28;20053;-86
2022/04/12 13:19:55;;;;;;;18.00;11.95;;;;;;;;;;5032660;28;20055;-87
2022/04/12 13:22:37;;;;;;;14.60;11.35;;;;;;;;;;5047587;28;20044;-86
2022/04/12 13:25:03;;;;;;;18.05;12.10;;;;;;;;;;5067984;28;20058;-88
2022/04/12 13:27:35;;;;;;;20.83;11.57;;;;;;;;;;5047011;28;20966;-86
2022/04/12 13:30:02;;;;;;;13.65;10.75;;;;;;;;;;5075580;22;20135;-86
2022/04/12 13:32:31;;;;;;;16.80;11.05;;;;;;;;;;5030296;28;20135;-88
2022/04/12 13:34:59;;;;;;;16.63;12.35;;;;;;;;;;5043783;28;20098;-87
2022/04/12 13:37:35;;;;;;;14.50;11.02;;;;;;;;;;5045455;28;20043;-87
2022/04/12 13:40:22;;;;;;;18.00;11.27;;;;;;;;;;5008135;28;20033;-86
2022/04/12 13:42:58;;;;;;;20.08;11.60;;;;;;;;;;5022209;28;20591;-86
2022/04/12 13:45:24;;;;;;;16.20;11.85;;;;;;;;;;5027021;28;20056;-86
2022/04/12 13:48:02;;;;;;;17.67;11.23;;;;;;;;;;5028021;28;20489;-86
2022/04/12 13:50:28;;;;;;;17.60;12.13;;;;;;;;;;4990847;28;20041;-87
2022/04/12 13:52:54;;;;;;;18.20;11.93;;;;;;;;;;5002324;28;20048;-87
2022/04/12 13:55:36;;;;;;;18.50;11.73;;;;;;;;;;5013017;28;20056;-88
2022/04/12 13:58:03;;;;;;;16.83;10.77;;;;;;;;;;5042409;28;20448;-88
2022/04/12 14:00:38;;;;;;;16.30;12.20;;;;;;;;;;5019789;28;20102;-87
2022/04/12 14:03:16;;;;;;;16.05;11.38;;;;;;;;;;5041207;28;20045;-87
2022/04/12 14:05:52;;;;;;;21.88;13.23;;;;;;;;;;5038011;28;20056;-87
2022/04/12 14:08:27;;;;;;;17.23;12.50;;;;;;;;;;5024055;28;20060;-88
2022/04/12 14:11:07;;;;;;;19.55;12.90;;;;;;;;;;5003167;28;20063;-86
2022/04/12 14:16:31;;;;;;;21.02;12.38;;;;;;;;;;5006313;28;20128;-87
2022/04/12 14:19:00;;;;;;;18.40;12.93;;;;;;;;;;5035980;28;20048;-87
2022/04/12 14:21:29;;;;;;;21.17;14.30;;;;;;;;;;5008771;28;20045;-87
2022/04/12 14:24:10;;;;;;;20.42;14.05;;;;;;;;;;4990554;28;20758;-86
2022/04/12 14:26:52;;;;;;;19.55;12.85;;;;;;;;;;5023809;28;20044;-87
2022/04/12 14:29:18;;;;;;;21.08;13.48;;;;;;;;;;5029170;28;20481;-88
2022/04/12 14:32:13;;;;;;;18.05;14.02;;;;;;;;;;5039950;28;20056;-88
2022/04/12 14:34:39;;;;;;;17.58;13.35;;;;;;;;;;5023116;28;20064;-87
2022/04/12 14:37:21;;;;;;;21.00;13.90;;;;;;;;;;5031466;28;20060;-87
2022/04/12 14:40:04;;;;;;;17.48;13.70;;;;;;;;;;5021435;28;20037;-85
2022/04/12 14:42:42;;;;;;;19.05;13.07;;;;;;;;;;4999092;28;20044;-88
2022/04/12 14:45:19;;;;;;;23.20;13.00;;;;;;;;;;5030345;28;20727;-87
2022/04/12 14:47:51;;;;;;;20.15;12.88;;;;;;;;;;5026887;28;20136;-87
2022/04/12 14:50:32;;;;;;;18.40;12.13;;;;;;;;;;5035438;28;20050;-88
2022/04/12 14:52:58;;;;;;;22.30;12.90;;;;;;;;;;5017339;28;20049;-88
2022/04/12 14:55:24;;;;;;;20.40;12.85;;;;;;;;;;5045089;28;20037;-88
2022/04/12 14:58:13;;;;;;;21.52;13.00;;;;;;;;;;5027182;28;20060;-88
2022/04/12 15:01:16;;;;;;;17.42;12.60;;;;;;;;;;5012036;28;20041;-88
2022/04/12 15:03:42;;;;;;;19.30;12.77;;;;;;;;;;5073372;22;20113;-86
2022/04/12 15:10:11;;;;;;;19.50;13.02;;;;;;;;;;5074511;22;20130;-87